sensor_id;sensor_type;location;lat;lon;timestamp;P1;durP1;ratioP1;P2;durP2;ratioP2
2860;SDS011;1438;50.922;6.704;2022-12-24T00:02:21;20.13;;;4.72;;
2860;SDS011;1438;50.922;6.704;2022-12-24T00:04:47;27.05;;;5.45;;
2860;SDS011;1438;50.922;6.704;2022-12-24T00:07:13;18.77;;;3.90;;
2860;SDS011;1438;50.922;6.704;2022-12-24T00:09:39;17.95;;;3.90;;
2860;SDS011;1438;50.922;6.704;2022-12-24T00:12:05;21.70;;;3.72;;
2860;SDS011;1438;50.922;6.704;2022-12-24T00:14:31;15.57;;;4.53;;
2860;SDS011;1438;50.922;6.704;2022-12-24T00:16:57;27.00;;;4.25;;
2860;SDS011;1438;50.922;6.704;2022-12-24T00:19:23;17.63;;;3.50;;
2860;SDS011;1438;50.922;6.704;2022-12-24T00:21:49;15.23;;;3.63;;
2860;SDS011;1438;50.922;6.704;2022-12-24T00:24:15;14.98;;;2.70;;
2860;SDS011;1438;50.922;6.704;2022-12-24T00:26:41;18.80;;;5.22;;
2860;SDS011;1438;50.922;6.704;2022-12-24T00:29:07;23.05;;;4.88;;
2860;SDS011;1438;50.922;6.704;2022-12-24T00:31:33;14.73;;;2.95;;
2860;SDS011;1438;50.922;6.704;2022-12-24T00:33:59;18.00;;;3.78;;
2860;SDS011;1438;50.922;6.704;2022-12-24T00:36:25;14.98;;;2.85;;
2860;SDS011;1438;50.922;6.704;2022-12-24T00:38:51;17.60;;;3.72;;
2860;SDS011;1438;50.922;6.704;2022-12-24T00:41:17;13.20;;;3.15;;
2860;SDS011;1438;50.922;6.704;2022-12-24T00:43:50;18.05;;;4.55;;
2860;SDS011;1438;50.922;6.704;2022-12-24T00:46:16;17.40;;;3.95;;
2860;SDS011;1438;50.922;6.704;2022-12-24T00:48:42;18.08;;;4.00;;
2860;SDS011;1438;50.922;6.704;2022-12-24T00:51:08;15.73;;;4.13;;
2860;SDS011;1438;50.922;6.704;2022-12-24T00:53:34;15.65;;;3.45;;
2860;SDS011;1438;50.922;6.704;2022-12-24T00:56:00;17.17;;;4.10;;
2860;SDS011;1438;50.922;6.704;2022-12-24T00:58:26;17.13;;;4.07;;
2860;SDS011;1438;50.922;6.704;2022-12-24T01:00:52;20.27;;;3.17;;
2860;SDS011;1438;50.922;6.704;2022-12-24T01:03:18;23.58;;;4.30;;
2860;SDS011;1438;50.922;6.704;2022-12-24T01:05:44;20.15;;;4.57;;
2860;SDS011;1438;50.922;6.704;2022-12-24T01:08:12;15.55;;;3.55;;
2860;SDS011;1438;50.922;6.704;2022-12-24T01:10:38;18.55;;;3.15;;
2860;SDS011;1438;50.922;6.704;2022-12-24T01:13:04;18.60;;;2.90;;
2860;SDS011;1438;50.922;6.704;2022-12-24T01:15:30;22.13;;;4.70;;
2860;SDS011;1438;50.922;6.704;2022-12-24T01:17:56;21.02;;;3.83;;
2860;SDS011;1438;50.922;6.704;2022-12-24T01:20:23;20.55;;;3.25;;
2860;SDS011;1438;50.922;6.704;2022-12-24T01:22:51;20.40;;;3.47;;
2860;SDS011;1438;50.922;6.704;2022-12-24T01:25:17;14.10;;;2.85;;
2860;SDS011;1438;50.922;6.704;2022-12-24T01:27:43;20.08;;;3.33;;
2860;SDS011;1438;50.922;6.704;2022-12-24T01:30:10;18.17;;;3.22;;
2860;SDS011;1438;50.922;6.704;2022-12-24T01:32:38;32.20;;;4.97;;
2860;SDS011;1438;50.922;6.704;2022-12-24T01:35:04;26.23;;;5.20;;
2860;SDS011;1438;50.922;6.704;2022-12-24T01:37:30;23.38;;;4.72;;
2860;SDS011;1438;50.922;6.704;2022-12-24T01:39:56;13.85;;;3.22;;
2860;SDS011;1438;50.922;6.704;2022-12-24T01:42:42;13.65;;;3.50;;
2860;SDS011;1438;50.922;6.704;2022-12-24T01:48:21;19.10;;;3.35;;
2860;SDS011;1438;50.922;6.704;2022-12-24T01:50:48;20.48;;;3.58;;
2860;SDS011;1438;50.922;6.704;2022-12-24T01:53:15;19.55;;;4.43;;
2860;SDS011;1438;50.922;6.704;2022-12-24T01:55:42;13.63;;;3.67;;
2860;SDS011;1438;50.922;6.704;2022-12-24T01:58:09;18.98;;;4.32;;
2860;SDS011;1438;50.922;6.704;2022-12-24T02:00:35;23.92;;;4.20;;
2860;SDS011;1438;50.922;6.704;2022-12-24T02:03:01;14.68;;;3.58;;
2860;SDS011;1438;50.922;6.704;2022-12-24T02:07:54;21.07;;;4.60;;
2860;SDS011;1438;50.922;6.704;2022-12-24T02:10:20;16.10;;;4.38;;
2860;SDS011;1438;50.922;6.704;2022-12-24T02:12:47;19.65;;;3.63;;
2860;SDS011;1438;50.922;6.704;2022-12-24T02:15:14;16.02;;;3.30;;
2860;SDS011;1438;50.922;6.704;2022-12-24T02:20:22;13.80;;;2.63;;
2860;SDS011;1438;50.922;6.704;2022-12-24T02:23:01;14.18;;;4.32;;
2860;SDS011;1438;50.922;6.704;2022-12-24T02:25:40;17.83;;;5.10;;
2860;SDS011;1438;50.922;6.704;2022-12-24T02:28:31;16.30;;;3.05;;
2860;SDS011;1438;50.922;6.704;2022-12-24T02:31:03;13.50;;;3.35;;
2860;SDS011;1438;50.922;6.704;2022-12-24T02:33:37;29.15;;;5.20;;
2860;SDS011;1438;50.922;6.704;2022-12-24T02:36:10;22.00;;;3.47;;
2860;SDS011;1438;50.922;6.704;2022-12-24T02:38:40;20.20;;;4.78;;
2860;SDS011;1438;50.922;6.704;2022-12-24T02:41:13;14.57;;;4.00;;
2860;SDS011;1438;50.922;6.704;2022-12-24T02:43:41;22.08;;;4.95;;
2860;SDS011;1438;50.922;6.704;2022-12-24T02:46:11;17.38;;;4.78;;
2860;SDS011;1438;50.922;6.704;2022-12-24T02:48:38;16.75;;;3.13;;
2860;SDS011;1438;50.922;6.704;2022-12-24T02:51:07;16.48;;;3.80;;
2860;SDS011;1438;50.922;6.704;2022-12-24T02:53:34;16.48;;;3.70;;
2860;SDS011;1438;50.922;6.704;2022-12-24T02:58:55;12.25;;;2.75;;
2860;SDS011;1438;50.922;6.704;2022-12-24T03:11:49;11.25;;;2.95;;
2860;SDS011;1438;50.922;6.704;2022-12-24T03:14:18;8.90;;;2.70;;
2860;SDS011;1438;50.922;6.704;2022-12-24T03:16:44;9.43;;;2.10;;
2860;SDS011;1438;50.922;6.704;2022-12-24T03:19:10;11.32;;;2.40;;
2860;SDS011;1438;50.922;6.704;2022-12-24T03:21:37;12.23;;;3.05;;
2860;SDS011;1438;50.922;6.704;2022-12-24T03:24:06;7.38;;;2.00;;
2860;SDS011;1438;50.922;6.704;2022-12-24T03:26:33;5.60;;;1.80;;
2860;SDS011;1438;50.922;6.704;2022-12-24T03:28:59;12.68;;;3.20;;
2860;SDS011;1438;50.922;6.704;2022-12-24T03:31:38;8.75;;;2.03;;
2860;SDS011;1438;50.922;6.704;2022-12-24T03:34:04;6.63;;;2.40;;
2860;SDS011;1438;50.922;6.704;2022-12-24T03:36:30;10.77;;;2.47;;
2860;SDS011;1438;50.922;6.704;2022-12-24T03:38:56;6.18;;;2.22;;
2860;SDS011;1438;50.922;6.704;2022-12-24T03:41:22;4.80;;;2.20;;
2860;SDS011;1438;50.922;6.704;2022-12-24T03:43:48;11.63;;;2.63;;
2860;SDS011;1438;50.922;6.704;2022-12-24T03:46:14;8.13;;;2.22;;
2860;SDS011;1438;50.922;6.704;2022-12-24T03:48:40;4.68;;;1.70;;
2860;SDS011;1438;50.922;6.704;2022-12-24T03:51:13;8.23;;;1.83;;
2860;SDS011;1438;50.922;6.704;2022-12-24T03:53:41;10.57;;;2.50;;
2860;SDS011;1438;50.922;6.704;2022-12-24T03:56:07;10.57;;;2.08;;
2860;SDS011;1438;50.922;6.704;2022-12-24T03:58:33;8.68;;;1.70;;
2860;SDS011;1438;50.922;6.704;2022-12-24T04:00:59;4.05;;;1.92;;
2860;SDS011;1438;50.922;6.704;2022-12-24T04:03:25;3.65;;;1.50;;
2860;SDS011;1438;50.922;6.704;2022-12-24T04:08:50;3.08;;;1.50;;
2860;SDS011;1438;50.922;6.704;2022-12-24T04:11:17;4.28;;;1.50;;
2860;SDS011;1438;50.922;6.704;2022-12-24T04:13:43;2.10;;;1.02;;
2860;SDS011;1438;50.922;6.704;2022-12-24T04:16:10;6.13;;;1.58;;
2860;SDS011;1438;50.922;6.704;2022-12-24T04:18:37;4.53;;;1.63;;
2860;SDS011;1438;50.922;6.704;2022-12-24T04:21:03;7.22;;;1.67;;
2860;SDS011;1438;50.922;6.704;2022-12-24T04:23:30;7.55;;;1.80;;
2860;SDS011;1438;50.922;6.704;2022-12-24T04:25:59;6.22;;;1.30;;
2860;SDS011;1438;50.922;6.704;2022-12-24T04:28:27;4.65;;;1.42;;
2860;SDS011;1438;50.922;6.704;2022-12-24T04:30:56;5.55;;;1.48;;
2860;SDS011;1438;50.922;6.704;2022-12-24T04:33:22;6.05;;;1.35;;
2860;SDS011;1438;50.922;6.704;2022-12-24T04:35:48;7.55;;;1.52;;
2860;SDS011;1438;50.922;6.704;2022-12-24T04:38:14;4.20;;;1.20;;
2860;SDS011;1438;50.922;6.704;2022-12-24T04:40:40;5.80;;;1.50;;
2860;SDS011;1438;50.922;6.704;2022-12-24T04:43:06;10.77;;;2.17;;
2860;SDS011;1438;50.922;6.704;2022-12-24T04:45:32;9.00;;;2.35;;
2860;SDS011;1438;50.922;6.704;2022-12-24T04:47:58;5.30;;;2.10;;
2860;SDS011;1438;50.922;6.704;2022-12-24T04:50:24;6.30;;;1.35;;
2860;SDS011;1438;50.922;6.704;2022-12-24T04:52:50;3.17;;;1.67;;
2860;SDS011;1438;50.922;6.704;2022-12-24T04:55:16;5.53;;;1.70;;
2860;SDS011;1438;50.922;6.704;2022-12-24T04:57:42;9.70;;;2.30;;
2860;SDS011;1438;50.922;6.704;2022-12-24T05:00:09;11.32;;;2.20;;
2860;SDS011;1438;50.922;6.704;2022-12-24T05:02:35;8.52;;;1.92;;
2860;SDS011;1438;50.922;6.704;2022-12-24T05:05:01;10.25;;;1.73;;
2860;SDS011;1438;50.922;6.704;2022-12-24T05:07:27;11.38;;;2.40;;
2860;SDS011;1438;50.922;6.704;2022-12-24T05:09:53;8.15;;;2.35;;
2860;SDS011;1438;50.922;6.704;2022-12-24T05:12:19;18.33;;;2.97;;
2860;SDS011;1438;50.922;6.704;2022-12-24T05:14:45;8.38;;;2.33;;
2860;SDS011;1438;50.922;6.704;2022-12-24T05:17:11;8.85;;;2.90;;
2860;SDS011;1438;50.922;6.704;2022-12-24T05:19:37;6.38;;;2.75;;
2860;SDS011;1438;50.922;6.704;2022-12-24T05:22:03;9.85;;;2.72;;
2860;SDS011;1438;50.922;6.704;2022-12-24T05:24:48;6.90;;;1.95;;
2860;SDS011;1438;50.922;6.704;2022-12-24T05:27:32;14.32;;;2.38;;
2860;SDS011;1438;50.922;6.704;2022-12-24T05:29:58;12.30;;;2.60;;
2860;SDS011;1438;50.922;6.704;2022-12-24T05:32:24;12.85;;;3.03;;
2860;SDS011;1438;50.922;6.704;2022-12-24T05:34:52;15.73;;;3.47;;
2860;SDS011;1438;50.922;6.704;2022-12-24T05:37:18;8.35;;;2.42;;
2860;SDS011;1438;50.922;6.704;2022-12-24T05:39:44;11.10;;;3.33;;
2860;SDS011;1438;50.922;6.704;2022-12-24T05:42:10;14.48;;;2.97;;
2860;SDS011;1438;50.922;6.704;2022-12-24T05:44:36;20.63;;;4.40;;
2860;SDS011;1438;50.922;6.704;2022-12-24T05:47:02;14.77;;;3.20;;
2860;SDS011;1438;50.922;6.704;2022-12-24T05:49:28;11.73;;;3.63;;
2860;SDS011;1438;50.922;6.704;2022-12-24T05:51:54;13.35;;;2.97;;
2860;SDS011;1438;50.922;6.704;2022-12-24T05:54:20;9.15;;;3.25;;
2860;SDS011;1438;50.922;6.704;2022-12-24T05:56:46;17.15;;;3.58;;
2860;SDS011;1438;50.922;6.704;2022-12-24T05:59:12;9.70;;;3.53;;
2860;SDS011;1438;50.922;6.704;2022-12-24T06:01:38;15.88;;;4.25;;
2860;SDS011;1438;50.922;6.704;2022-12-24T06:04:04;13.68;;;3.28;;
2860;SDS011;1438;50.922;6.704;2022-12-24T06:06:31;11.90;;;3.75;;
2860;SDS011;1438;50.922;6.704;2022-12-24T06:08:57;11.27;;;4.10;;
2860;SDS011;1438;50.922;6.704;2022-12-24T06:11:24;18.63;;;4.40;;
2860;SDS011;1438;50.922;6.704;2022-12-24T06:13:50;15.32;;;3.92;;
2860;SDS011;1438;50.922;6.704;2022-12-24T06:16:17;18.13;;;4.35;;
2860;SDS011;1438;50.922;6.704;2022-12-24T06:18:44;21.58;;;3.80;;
2860;SDS011;1438;50.922;6.704;2022-12-24T06:21:10;16.23;;;4.07;;
2860;SDS011;1438;50.922;6.704;2022-12-24T06:23:38;13.98;;;4.55;;
2860;SDS011;1438;50.922;6.704;2022-12-24T06:26:06;19.15;;;3.85;;
2860;SDS011;1438;50.922;6.704;2022-12-24T06:28:33;18.02;;;5.00;;
2860;SDS011;1438;50.922;6.704;2022-12-24T06:30:59;14.63;;;3.67;;
2860;SDS011;1438;50.922;6.704;2022-12-24T06:33:26;25.45;;;4.80;;
2860;SDS011;1438;50.922;6.704;2022-12-24T06:35:52;13.55;;;3.90;;
2860;SDS011;1438;50.922;6.704;2022-12-24T06:38:18;21.33;;;4.97;;
2860;SDS011;1438;50.922;6.704;2022-12-24T06:40:44;21.05;;;4.15;;
2860;SDS011;1438;50.922;6.704;2022-12-24T06:43:11;13.27;;;4.22;;
2860;SDS011;1438;50.922;6.704;2022-12-24T06:45:37;11.35;;;3.08;;
2860;SDS011;1438;50.922;6.704;2022-12-24T06:48:04;18.38;;;4.10;;
2860;SDS011;1438;50.922;6.704;2022-12-24T06:50:31;20.92;;;4.85;;
2860;SDS011;1438;50.922;6.704;2022-12-24T06:52:57;14.45;;;3.33;;
2860;SDS011;1438;50.922;6.704;2022-12-24T06:55:23;19.52;;;3.95;;
2860;SDS011;1438;50.922;6.704;2022-12-24T06:57:49;14.52;;;4.55;;
2860;SDS011;1438;50.922;6.704;2022-12-24T07:00:15;12.45;;;4.13;;
2860;SDS011;1438;50.922;6.704;2022-12-24T07:02:42;26.00;;;4.00;;
2860;SDS011;1438;50.922;6.704;2022-12-24T07:05:08;24.77;;;5.55;;
2860;SDS011;1438;50.922;6.704;2022-12-24T07:07:38;17.17;;;4.13;;
2860;SDS011;1438;50.922;6.704;2022-12-24T07:10:05;21.40;;;3.60;;
2860;SDS011;1438;50.922;6.704;2022-12-24T07:12:31;14.88;;;3.28;;
2860;SDS011;1438;50.922;6.704;2022-12-24T07:14:57;21.35;;;4.40;;
2860;SDS011;1438;50.922;6.704;2022-12-24T07:17:23;22.90;;;3.92;;
2860;SDS011;1438;50.922;6.704;2022-12-24T07:19:49;18.85;;;4.25;;
2860;SDS011;1438;50.922;6.704;2022-12-24T07:22:15;18.02;;;4.60;;
2860;SDS011;1438;50.922;6.704;2022-12-24T07:24:41;22.25;;;4.50;;
2860;SDS011;1438;50.922;6.704;2022-12-24T07:27:07;28.25;;;4.40;;
2860;SDS011;1438;50.922;6.704;2022-12-24T07:29:33;19.77;;;5.13;;
2860;SDS011;1438;50.922;6.704;2022-12-24T07:31:59;21.02;;;4.32;;
2860;SDS011;1438;50.922;6.704;2022-12-24T07:34:26;27.20;;;5.15;;
2860;SDS011;1438;50.922;6.704;2022-12-24T07:36:52;16.08;;;4.35;;
2860;SDS011;1438;50.922;6.704;2022-12-24T07:39:18;17.08;;;4.97;;
2860;SDS011;1438;50.922;6.704;2022-12-24T07:41:44;22.55;;;4.20;;
2860;SDS011;1438;50.922;6.704;2022-12-24T07:44:10;10.63;;;3.42;;
2860;SDS011;1438;50.922;6.704;2022-12-24T07:46:37;23.25;;;4.55;;
2860;SDS011;1438;50.922;6.704;2022-12-24T07:49:03;21.83;;;4.10;;
2860;SDS011;1438;50.922;6.704;2022-12-24T07:51:29;20.42;;;4.18;;
2860;SDS011;1438;50.922;6.704;2022-12-24T07:53:55;19.73;;;4.30;;
2860;SDS011;1438;50.922;6.704;2022-12-24T07:56:21;24.63;;;4.40;;
2860;SDS011;1438;50.922;6.704;2022-12-24T07:58:48;17.52;;;5.00;;
2860;SDS011;1438;50.922;6.704;2022-12-24T08:01:15;22.55;;;6.00;;
2860;SDS011;1438;50.922;6.704;2022-12-24T08:03:41;16.58;;;5.35;;
2860;SDS011;1438;50.922;6.704;2022-12-24T08:06:07;17.50;;;5.47;;
2860;SDS011;1438;50.922;6.704;2022-12-24T08:08:33;34.13;;;6.15;;
2860;SDS011;1438;50.922;6.704;2022-12-24T08:11:00;22.13;;;5.30;;
2860;SDS011;1438;50.922;6.704;2022-12-24T08:13:26;19.70;;;7.43;;
2860;SDS011;1438;50.922;6.704;2022-12-24T08:15:52;24.65;;;7.22;;
2860;SDS011;1438;50.922;6.704;2022-12-24T08:18:18;17.23;;;5.13;;
2860;SDS011;1438;50.922;6.704;2022-12-24T08:20:44;20.95;;;5.03;;
2860;SDS011;1438;50.922;6.704;2022-12-24T08:23:10;18.90;;;6.95;;
2860;SDS011;1438;50.922;6.704;2022-12-24T08:25:37;19.60;;;4.85;;
2860;SDS011;1438;50.922;6.704;2022-12-24T08:28:06;18.80;;;4.78;;
2860;SDS011;1438;50.922;6.704;2022-12-24T08:30:32;17.23;;;7.13;;
2860;SDS011;1438;50.922;6.704;2022-12-24T08:32:58;28.17;;;8.73;;
2860;SDS011;1438;50.922;6.704;2022-12-24T08:35:24;26.05;;;7.97;;
2860;SDS011;1438;50.922;6.704;2022-12-24T08:37:50;22.95;;;5.45;;
2860;SDS011;1438;50.922;6.704;2022-12-24T08:40:17;19.58;;;5.18;;
2860;SDS011;1438;50.922;6.704;2022-12-24T08:42:43;26.10;;;6.43;;
2860;SDS011;1438;50.922;6.704;2022-12-24T08:45:09;18.40;;;5.53;;
2860;SDS011;1438;50.922;6.704;2022-12-24T08:47:35;21.23;;;4.72;;
2860;SDS011;1438;50.922;6.704;2022-12-24T08:50:02;15.32;;;4.18;;
2860;SDS011;1438;50.922;6.704;2022-12-24T08:52:28;17.95;;;4.20;;
2860;SDS011;1438;50.922;6.704;2022-12-24T08:54:54;24.83;;;4.53;;
2860;SDS011;1438;50.922;6.704;2022-12-24T08:57:20;19.08;;;4.20;;
2860;SDS011;1438;50.922;6.704;2022-12-24T08:59:46;20.80;;;4.07;;
2860;SDS011;1438;50.922;6.704;2022-12-24T09:02:12;16.58;;;4.68;;
2860;SDS011;1438;50.922;6.704;2022-12-24T09:04:38;28.58;;;5.03;;
2860;SDS011;1438;50.922;6.704;2022-12-24T09:07:04;17.00;;;4.85;;
2860;SDS011;1438;50.922;6.704;2022-12-24T09:09:30;10.77;;;4.10;;
2860;SDS011;1438;50.922;6.704;2022-12-24T09:11:56;19.83;;;4.60;;
2860;SDS011;1438;50.922;6.704;2022-12-24T09:14:22;21.65;;;5.10;;
2860;SDS011;1438;50.922;6.704;2022-12-24T09:16:48;19.70;;;4.30;;
2860;SDS011;1438;50.922;6.704;2022-12-24T09:19:14;19.45;;;4.80;;
2860;SDS011;1438;50.922;6.704;2022-12-24T09:21:40;16.90;;;4.65;;
2860;SDS011;1438;50.922;6.704;2022-12-24T09:24:07;21.00;;;5.13;;
2860;SDS011;1438;50.922;6.704;2022-12-24T09:26:33;25.48;;;5.45;;
2860;SDS011;1438;50.922;6.704;2022-12-24T09:29:00;17.88;;;4.28;;
2860;SDS011;1438;50.922;6.704;2022-12-24T09:31:26;16.63;;;4.97;;
2860;SDS011;1438;50.922;6.704;2022-12-24T09:33:52;25.15;;;5.35;;
2860;SDS011;1438;50.922;6.704;2022-12-24T09:36:19;23.58;;;5.50;;
2860;SDS011;1438;50.922;6.704;2022-12-24T09:38:45;20.40;;;4.47;;
2860;SDS011;1438;50.922;6.704;2022-12-24T09:41:12;15.88;;;5.22;;
2860;SDS011;1438;50.922;6.704;2022-12-24T09:43:38;22.83;;;5.05;;
2860;SDS011;1438;50.922;6.704;2022-12-24T09:46:12;14.70;;;4.60;;
2860;SDS011;1438;50.922;6.704;2022-12-24T09:48:41;20.42;;;4.43;;
2860;SDS011;1438;50.922;6.704;2022-12-24T09:51:09;16.55;;;3.33;;
2860;SDS011;1438;50.922;6.704;2022-12-24T09:56:21;21.20;;;4.93;;
2860;SDS011;1438;50.922;6.704;2022-12-24T09:58:51;17.45;;;4.85;;
2860;SDS011;1438;50.922;6.704;2022-12-24T10:01:19;20.55;;;4.95;;
2860;SDS011;1438;50.922;6.704;2022-12-24T10:03:45;25.38;;;6.05;;
2860;SDS011;1438;50.922;6.704;2022-12-24T10:06:16;9.38;;;3.78;;
2860;SDS011;1438;50.922;6.704;2022-12-24T10:11:11;24.85;;;5.88;;
2860;SDS011;1438;50.922;6.704;2022-12-24T10:13:46;17.20;;;4.30;;
2860;SDS011;1438;50.922;6.704;2022-12-24T10:19:04;21.35;;;5.57;;
2860;SDS011;1438;50.922;6.704;2022-12-24T10:21:40;23.40;;;8.43;;
2860;SDS011;1438;50.922;6.704;2022-12-24T10:26:50;29.33;;;6.40;;
2860;SDS011;1438;50.922;6.704;2022-12-24T10:29:19;22.10;;;5.80;;
2860;SDS011;1438;50.922;6.704;2022-12-24T10:34:22;13.32;;;5.10;;
2860;SDS011;1438;50.922;6.704;2022-12-24T10:36:48;18.05;;;4.15;;
2860;SDS011;1438;50.922;6.704;2022-12-24T10:39:18;20.02;;;5.00;;
2860;SDS011;1438;50.922;6.704;2022-12-24T10:41:45;25.45;;;5.10;;
2860;SDS011;1438;50.922;6.704;2022-12-24T10:44:14;22.45;;;6.15;;
2860;SDS011;1438;50.922;6.704;2022-12-24T10:46:41;20.85;;;5.15;;
2860;SDS011;1438;50.922;6.704;2022-12-24T10:49:11;23.60;;;5.30;;
2860;SDS011;1438;50.922;6.704;2022-12-24T10:51:48;20.95;;;5.75;;
2860;SDS011;1438;50.922;6.704;2022-12-24T10:54:16;18.10;;;4.28;;
2860;SDS011;1438;50.922;6.704;2022-12-24T10:56:45;19.02;;;4.57;;
2860;SDS011;1438;50.922;6.704;2022-12-24T11:01:53;17.95;;;4.35;;
2860;SDS011;1438;50.922;6.704;2022-12-24T11:04:21;17.08;;;4.07;;
2860;SDS011;1438;50.922;6.704;2022-12-24T11:06:51;18.08;;;4.38;;
2860;SDS011;1438;50.922;6.704;2022-12-24T11:09:25;26.08;;;4.05;;
2860;SDS011;1438;50.922;6.704;2022-12-24T11:11:51;19.40;;;3.72;;
2860;SDS011;1438;50.922;6.704;2022-12-24T11:14:18;24.48;;;5.95;;
2860;SDS011;1438;50.922;6.704;2022-12-24T11:16:49;24.50;;;4.40;;
2860;SDS011;1438;50.922;6.704;2022-12-24T11:19:17;21.02;;;5.15;;
2860;SDS011;1438;50.922;6.704;2022-12-24T11:21:44;21.60;;;3.90;;
2860;SDS011;1438;50.922;6.704;2022-12-24T11:26:40;26.33;;;4.70;;
2860;SDS011;1438;50.922;6.704;2022-12-24T11:31:42;16.33;;;4.40;;
2860;SDS011;1438;50.922;6.704;2022-12-24T11:34:25;16.27;;;4.90;;
2860;SDS011;1438;50.922;6.704;2022-12-24T11:36:53;17.55;;;3.42;;
2860;SDS011;1438;50.922;6.704;2022-12-24T11:39:21;36.20;;;6.00;;
2860;SDS011;1438;50.922;6.704;2022-12-24T11:41:50;25.05;;;5.57;;
2860;SDS011;1438;50.922;6.704;2022-12-24T11:44:24;26.30;;;4.60;;
2860;SDS011;1438;50.922;6.704;2022-12-24T11:46:51;19.30;;;4.70;;
2860;SDS011;1438;50.922;6.704;2022-12-24T11:54:45;20.00;;;4.40;;
2860;SDS011;1438;50.922;6.704;2022-12-24T11:57:13;22.87;;;4.70;;
2860;SDS011;1438;50.922;6.704;2022-12-24T11:59:41;23.40;;;4.50;;
2860;SDS011;1438;50.922;6.704;2022-12-24T12:02:26;15.00;;;5.63;;
2860;SDS011;1438;50.922;6.704;2022-12-24T12:04:57;18.23;;;4.70;;
2860;SDS011;1438;50.922;6.704;2022-12-24T12:07:24;24.60;;;7.10;;
2860;SDS011;1438;50.922;6.704;2022-12-24T12:09:54;23.80;;;5.47;;
2860;SDS011;1438;50.922;6.704;2022-12-24T12:12:26;32.53;;;7.20;;
2860;SDS011;1438;50.922;6.704;2022-12-24T12:15:27;22.33;;;5.97;;
2860;SDS011;1438;50.922;6.704;2022-12-24T12:20:28;27.87;;;6.47;;
2860;SDS011;1438;50.922;6.704;2022-12-24T12:22:57;29.98;;;4.63;;
2860;SDS011;1438;50.922;6.704;2022-12-24T12:25:26;19.00;;;5.63;;
2860;SDS011;1438;50.922;6.704;2022-12-24T12:27:53;18.73;;;6.73;;
2860;SDS011;1438;50.922;6.704;2022-12-24T12:30:21;25.00;;;6.10;;
2860;SDS011;1438;50.922;6.704;2022-12-24T12:35:22;16.87;;;6.03;;
2860;SDS011;1438;50.922;6.704;2022-12-24T12:37:56;21.63;;;5.70;;
2860;SDS011;1438;50.922;6.704;2022-12-24T12:40:26;22.17;;;4.83;;
2860;SDS011;1438;50.922;6.704;2022-12-24T12:45:42;20.42;;;4.32;;
2860;SDS011;1438;50.922;6.704;2022-12-24T12:48:16;21.40;;;5.60;;
2860;SDS011;1438;50.922;6.704;2022-12-24T12:50:57;16.87;;;4.23;;
2860;SDS011;1438;50.922;6.704;2022-12-24T12:58:42;14.40;;;4.60;;
2860;SDS011;1438;50.922;6.704;2022-12-24T13:01:13;19.33;;;6.73;;
2860;SDS011;1438;50.922;6.704;2022-12-24T13:09:04;14.50;;;4.00;;
2860;SDS011;1438;50.922;6.704;2022-12-24T13:11:38;25.23;;;5.43;;
2860;SDS011;1438;50.922;6.704;2022-12-24T13:14:10;16.70;;;4.50;;
2860;SDS011;1438;50.922;6.704;2022-12-24T13:19:32;13.73;;;3.90;;
2860;SDS011;1438;50.922;6.704;2022-12-24T13:21:54;15.97;;;4.30;;
2860;SDS011;1438;50.922;6.704;2022-12-24T13:24:25;20.35;;;4.93;;
2860;SDS011;1438;50.922;6.704;2022-12-24T13:34:51;19.58;;;4.85;;
2860;SDS011;1438;50.922;6.704;2022-12-24T13:48:00;12.63;;;3.60;;
2860;SDS011;1438;50.922;6.704;2022-12-24T13:50:28;17.27;;;3.97;;
2860;SDS011;1438;50.922;6.704;2022-12-24T13:52:59;16.40;;;2.93;;
2860;SDS011;1438;50.922;6.704;2022-12-24T13:55:25;19.43;;;3.80;;
2860;SDS011;1438;50.922;6.704;2022-12-24T13:57:58;19.93;;;4.20;;
2860;SDS011;1438;50.922;6.704;2022-12-24T14:02:59;15.18;;;4.22;;
2860;SDS011;1438;50.922;6.704;2022-12-24T14:07:56;11.13;;;3.30;;
2860;SDS011;1438;50.922;6.704;2022-12-24T14:10:24;14.67;;;3.53;;
2860;SDS011;1438;50.922;6.704;2022-12-24T14:12:52;15.23;;;4.00;;
2860;SDS011;1438;50.922;6.704;2022-12-24T14:18:03;21.73;;;4.73;;
2860;SDS011;1438;50.922;6.704;2022-12-24T14:20:30;15.60;;;4.33;;
2860;SDS011;1438;50.922;6.704;2022-12-24T14:22:57;11.47;;;4.40;;
2860;SDS011;1438;50.922;6.704;2022-12-24T14:25:23;18.00;;;4.23;;
2860;SDS011;1438;50.922;6.704;2022-12-24T14:27:50;13.40;;;3.60;;
2860;SDS011;1438;50.922;6.704;2022-12-24T14:30:22;20.73;;;4.20;;
2860;SDS011;1438;50.922;6.704;2022-12-24T14:32:49;25.15;;;5.15;;
2860;SDS011;1438;50.922;6.704;2022-12-24T14:35:16;18.70;;;3.47;;
2860;SDS011;1438;50.922;6.704;2022-12-24T14:40:28;17.50;;;3.80;;
2860;SDS011;1438;50.922;6.704;2022-12-24T14:43:08;20.07;;;5.20;;
2860;SDS011;1438;50.922;6.704;2022-12-24T14:45:50;14.60;;;3.40;;
2860;SDS011;1438;50.922;6.704;2022-12-24T14:48:35;13.73;;;4.00;;
2860;SDS011;1438;50.922;6.704;2022-12-24T14:51:09;14.27;;;3.67;;
2860;SDS011;1438;50.922;6.704;2022-12-24T14:56:17;12.73;;;5.60;;
2860;SDS011;1438;50.922;6.704;2022-12-24T14:58:44;18.73;;;3.83;;
2860;SDS011;1438;50.922;6.704;2022-12-24T15:03:45;15.37;;;3.83;;
2860;SDS011;1438;50.922;6.704;2022-12-24T15:06:23;12.30;;;4.20;;
2860;SDS011;1438;50.922;6.704;2022-12-24T15:08:50;28.53;;;12.37;;
2860;SDS011;1438;50.922;6.704;2022-12-24T15:11:19;29.67;;;7.27;;
2860;SDS011;1438;50.922;6.704;2022-12-24T15:13:46;15.40;;;5.28;;
2860;SDS011;1438;50.922;6.704;2022-12-24T15:16:14;18.08;;;5.00;;
2860;SDS011;1438;50.922;6.704;2022-12-24T15:18:45;29.63;;;5.30;;
2860;SDS011;1438;50.922;6.704;2022-12-24T15:21:54;22.58;;;5.40;;
2860;SDS011;1438;50.922;6.704;2022-12-24T15:24:01;21.50;;;5.32;;
2860;SDS011;1438;50.922;6.704;2022-12-24T15:26:28;21.30;;;4.40;;
2860;SDS011;1438;50.922;6.704;2022-12-24T15:28:56;20.23;;;6.00;;
2860;SDS011;1438;50.922;6.704;2022-12-24T15:31:23;20.90;;;4.60;;
2860;SDS011;1438;50.922;6.704;2022-12-24T15:33:50;15.98;;;4.68;;
2860;SDS011;1438;50.922;6.704;2022-12-24T15:38:55;19.40;;;6.50;;
2860;SDS011;1438;50.922;6.704;2022-12-24T15:41:23;16.55;;;4.45;;
2860;SDS011;1438;50.922;6.704;2022-12-24T15:43:50;16.15;;;5.60;;
2860;SDS011;1438;50.922;6.704;2022-12-24T15:46:17;14.70;;;4.25;;
2860;SDS011;1438;50.922;6.704;2022-12-24T15:48:44;11.05;;;4.47;;
2860;SDS011;1438;50.922;6.704;2022-12-24T15:51:10;10.75;;;4.57;;
2860;SDS011;1438;50.922;6.704;2022-12-24T15:53:40;17.00;;;6.07;;
2860;SDS011;1438;50.922;6.704;2022-12-24T15:56:11;22.35;;;5.97;;
2860;SDS011;1438;50.922;6.704;2022-12-24T15:58:42;17.90;;;5.15;;
2860;SDS011;1438;50.922;6.704;2022-12-24T16:03:35;23.93;;;6.23;;
2860;SDS011;1438;50.922;6.704;2022-12-24T16:06:07;21.38;;;6.22;;
2860;SDS011;1438;50.922;6.704;2022-12-24T16:08:36;18.27;;;6.72;;
2860;SDS011;1438;50.922;6.704;2022-12-24T16:11:07;21.85;;;7.43;;
2860;SDS011;1438;50.922;6.704;2022-12-24T16:13:37;21.05;;;7.45;;
2860;SDS011;1438;50.922;6.704;2022-12-24T16:16:05;18.25;;;6.60;;
2860;SDS011;1438;50.922;6.704;2022-12-24T16:18:51;13.55;;;7.47;;
2860;SDS011;1438;50.922;6.704;2022-12-24T16:21:28;21.63;;;8.60;;
2860;SDS011;1438;50.922;6.704;2022-12-24T16:23:56;22.73;;;6.82;;
2860;SDS011;1438;50.922;6.704;2022-12-24T16:26:22;16.10;;;6.75;;
2860;SDS011;1438;50.922;6.704;2022-12-24T16:28:49;20.30;;;7.38;;
2860;SDS011;1438;50.922;6.704;2022-12-24T16:31:15;23.95;;;6.97;;
2860;SDS011;1438;50.922;6.704;2022-12-24T16:33:42;25.55;;;8.50;;
2860;SDS011;1438;50.922;6.704;2022-12-24T16:36:08;18.35;;;7.95;;
2860;SDS011;1438;50.922;6.704;2022-12-24T16:38:34;24.13;;;12.43;;
2860;SDS011;1438;50.922;6.704;2022-12-24T16:41:21;33.45;;;12.27;;
2860;SDS011;1438;50.922;6.704;2022-12-24T16:43:47;19.15;;;7.78;;
2860;SDS011;1438;50.922;6.704;2022-12-24T16:46:13;61.75;;;25.90;;
2860;SDS011;1438;50.922;6.704;2022-12-24T16:48:39;46.35;;;17.67;;
2860;SDS011;1438;50.922;6.704;2022-12-24T16:51:05;51.92;;;22.35;;
2860;SDS011;1438;50.922;6.704;2022-12-24T16:53:31;41.42;;;18.00;;
2860;SDS011;1438;50.922;6.704;2022-12-24T16:55:57;44.58;;;23.45;;
2860;SDS011;1438;50.922;6.704;2022-12-24T16:58:23;38.35;;;18.80;;
2860;SDS011;1438;50.922;6.704;2022-12-24T17:00:49;32.10;;;14.77;;